Saint John, Kansas
Current Conditions -  °F | °C
As of 3:15 AM on Sunday 21 Dec 2014 (Local Time) from KPTT Reporting Station
Haze Haze  
Wind Chill: 29°   Ceiling: 200
Heat Index: 37°   Visibility: 1mi
Dew Point: 36°   Wind: 13mph
Humidity: 93%   Direction: 190°S
Pressure: 29.99"   Gusts: NA
Location:  38°N, 98.76°W
Report Text: KPTT 210915Z AUTO 19011KT 1SM BR OVC002 03/02 A2999 RMK AO2
Loading
Personal Weather Stations






























Interactive Weather Map New forecast layout! Learn more

10-Day Weather Forecast

Advertisements
Track Severe Weather on mobile